Flight Track Log - Related Links

Times and Time Zones

All times are in EDT time to prevent confusion due to time zone crossing. See the N813MK flight status page for this flight to view local times or setup timezone preferences in your user account.

Time Position Orientation Groundspeed Altitude Reporting Facility
EDT Latitude Longitude Course Direction KTS MPH feet Rate Location/Type
Mon 05:41:10 PM 32.8333 -96.8333 140° Southeast 150 173 2,200  Level Dallas / Fort Worth TRACON
Mon 05:42:11 PM 32.8000 -96.8000 140° Southeast 156 180 3,400 1,587 Climbing Dallas / Fort Worth TRACON
Mon 05:43:11 PM 32.7333 -96.7833 168° South 218 251 5,400 2,000 Climbing Dallas / Fort Worth TRACON
Mon 05:44:11 PM 32.7000 -96.8333 232° Southwest 227 261 7,400 2,388 Climbing Dallas / Fort Worth TRACON
Mon 05:46:32 PM 32.6825 -97.0481 265° West 285 328 13,400 2,597 Climbing Fort Worth Center
Mon 05:47:32 PM 32.6850 -97.1419 272° West 312 359 16,100 2,900 Climbing Fort Worth Center
Mon 05:48:32 PM 32.6914 -97.2556 274° West 318 366 19,200 2,500 Climbing Fort Worth Center
Mon 05:49:32 PM 32.6936 -97.3567 272° West 329 379 21,100 1,850 Climbing Fort Worth Center
Mon 05:50:32 PM 32.6850 -97.4925 266° West 367 422 22,900 1,850 Climbing Fort Worth Center
Mon 05:51:32 PM 32.6744 -97.6256 265° West 395 455 24,800 2,250 Climbing Fort Worth Center
Mon 05:52:32 PM 32.6658 -97.7589 266° West 405 466 27,400 2,650 Climbing Fort Worth Center
Mon 05:53:32 PM 32.6550 -97.8872 264° West 405 466 30,100 2,550 Climbing Fort Worth Center
Mon 05:54:32 PM 32.6439 -98.0131 264° West 405 466 32,500 1,950 Climbing Fort Worth Center
Mon 05:55:32 PM 32.6328 -98.1436 264° West 400 460 34,000 750 Climbing Fort Worth Center
Mon 05:56:32 PM 32.6217 -98.2792 264° West 408 470 34,000 550 Level Fort Worth Center
Mon 05:57:32 PM 32.6122 -98.4050 265° West 418 481 35,100 2,050 Climbing Fort Worth Center
Mon 05:58:32 PM 32.5986 -98.5453 263° West 412 474 38,100 2,250 Climbing Fort Worth Center
Mon 05:59:32 PM 32.5869 -98.6586 263° West 401 461 39,600 1,450 Climbing Fort Worth Center
Mon 06:00:32 PM 32.5794 -98.7817 266° West 396 456 41,000 1,400 Climbing Fort Worth Center
Mon 06:01:32 PM 32.5678 -98.9047 264° West 386 444 42,400 1,000 Climbing Fort Worth Center
Mon 06:02:32 PM 32.5578 -99.0253 264° West 386 444 43,000 300 Climbing Fort Worth Center
Mon 06:03:32 PM 32.5456 -99.1533 264° West 386 444 43,000  Level Fort Worth Center
Mon 06:04:32 PM 32.5333 -99.2811 264° West 392 451 43,000  Level Fort Worth Center
Mon 06:05:32 PM 32.5211 -99.4067 263° West 392 451 43,000  Level Fort Worth Center
Mon 06:06:32 PM 32.5106 -99.5369 265° West 392 451 43,000  Level Fort Worth Center
Mon 06:07:32 PM 32.4958 -99.6622 262° West 392 451 43,000  Level Fort Worth Center
Mon 06:08:32 PM 32.4853 -99.7875 264° West 387 445 43,000  Level Fort Worth Center
Mon 06:09:32 PM 32.4722 -99.9153 263° West 387 445 43,000  Level Fort Worth Center
Mon 06:10:32 PM 32.4675 -100.0456 268° West 387 445 43,000  Level Fort Worth Center
Mon 06:11:32 PM 32.4606 -100.1686 266° West 387 445 43,000  Level Fort Worth Center
Mon 06:12:32 PM 32.4533 -100.3086 267° West 387 445 43,000  Level Fort Worth Center
Mon 06:13:32 PM 32.4461 -100.4339 266° West 387 445 43,000  Level Fort Worth Center
Mon 06:14:32 PM 32.4389 -100.5592 266° West 387 445 43,000  Level Fort Worth Center
Mon 06:15:32 PM 32.4294 -100.6894 265° West 387 445 43,000  Level Fort Worth Center
Mon 06:16:32 PM 32.4219 -100.8144 266° West 387 445 43,000  Level Fort Worth Center
Mon 06:17:32 PM 32.4142 -100.9422 266° West 387 445 43,000  Level Fort Worth Center
Mon 06:18:32 PM 32.4042 -101.0697 265° West 387 445 43,000  Level Fort Worth Center
Mon 06:19:32 PM 32.3983 -101.1975 267° West 387 445 43,000  Level Fort Worth Center
Mon 06:20:32 PM 32.3883 -101.3225 265° West 387 445 43,000  Level Fort Worth Center
Mon 06:21:32 PM 32.3781 -101.4500 265° West 387 445 43,000  Level Fort Worth Center
Mon 06:22:32 PM 32.3697 -101.5775 266° West 392 451 43,000  Level Fort Worth Center
Mon 06:23:32 PM 32.3614 -101.7025 266° West 392 451 43,000  Level Fort Worth Center
Mon 06:24:32 PM 32.3506 -101.8297 264° West 392 451 43,000  Level Fort Worth Center
Mon 06:25:32 PM 32.3439 -101.9572 266° West 387 445 43,000  Level Fort Worth Center
Mon 06:26:32 PM 32.3331 -102.0822 264° West 387 445 43,000  Level Fort Worth Center
Mon 06:27:32 PM 32.3222 -102.2069 264° West 387 445 43,000  Level Fort Worth Center
Mon 06:28:32 PM 32.3142 -102.3072 265° West 387 445 43,000  Level Fort Worth Center
Mon 06:29:32 PM 32.3044 -102.4469 265° West 387 445 43,000  Level Fort Worth Center
Mon 06:30:32 PM 32.2953 -102.5717 265° West 387 445 43,000  Level Fort Worth Center
Mon 06:31:32 PM 32.2858 -102.6964 265° West 387 445 43,000  Level Fort Worth Center
Mon 06:32:32 PM 32.2764 -102.8211 265° West 387 445 43,000  Level Fort Worth Center
Mon 06:33:32 PM 32.2669 -102.9433 265° West 387 445 43,000  Level Fort Worth Center
Mon 06:33:58 PM 32.2625 -102.9861 263° West 380 437 43,000  Level Albuquerque Center
Mon 06:34:59 PM 32.2497 -103.1358 264° West 382 440 43,000  Level Albuquerque Center
Mon 06:36:01 PM 32.2403 -103.2628 265° West 387 445 43,000  Level Albuquerque Center
Mon 06:37:03 PM 32.2286 -103.3889 264° West 387 445 43,000  Level Albuquerque Center
Mon 06:38:04 PM 32.2172 -103.5150 264° West 387 445 43,000  Level Albuquerque Center
Mon 06:39:06 PM 32.2061 -103.6417 264° West 388 447 43,000  Level Albuquerque Center
Mon 06:40:07 PM 32.1964 -103.7669 265° West 386 444 43,000  Level Albuquerque Center
Mon 06:41:09 PM 32.1872 -103.8933 265° West 388 447 43,000  Level Albuquerque Center
Mon 06:42:11 PM 32.1764 -104.0178 264° West 384 442 43,000  Level Albuquerque Center
Mon 06:43:12 PM 32.1644 -104.1431 264° West 381 438 43,000  Level Albuquerque Center
Mon 06:44:14 PM 32.1497 -104.2883 263° West 374 430 43,000  Level Albuquerque Center
Mon 06:45:15 PM 32.1375 -104.4111 263° West 377 434 43,000  Level Albuquerque Center
Mon 06:46:17 PM 32.1272 -104.5353 264° West 379 436 43,000  Level Albuquerque Center
Mon 06:47:18 PM 32.1150 -104.6578 263° West 379 436 43,000  Level Albuquerque Center
Mon 06:48:20 PM 32.1031 -104.7803 263° West 379 436 43,000  Level Albuquerque Center
Mon 06:49:21 PM 32.0914 -104.9047 264° West 380 437 43,000  Level Albuquerque Center
Mon 06:50:23 PM 32.0789 -105.0303 263° West 382 440 43,000  Level Albuquerque Center
Mon 06:51:25 PM 32.0636 -105.1789 263° West 386 444 43,000  Level Albuquerque Center
Mon 06:52:26 PM 32.0519 -105.3028 264° West 386 444 43,000  Level Albuquerque Center
Mon 06:53:28 PM 32.0386 -105.4294 263° West 388 447 43,000  Level Albuquerque Center
Mon 06:54:29 PM 32.0258 -105.5536 263° West 384 442 43,000  Level Albuquerque Center
Mon 06:55:31 PM 32.0125 -105.6800 263° West 389 448 43,000  Level Albuquerque Center
Mon 06:56:32 PM 31.9997 -105.8050 263° West 387 445 43,000  Level Albuquerque Center
Mon 06:57:34 PM 31.9842 -105.9494 263° West 387 445 43,000  Level Albuquerque Center
Mon 06:58:35 PM 31.9731 -106.0636 263° West 390 449 43,000  Level Albuquerque Center
Mon 06:59:37 PM 31.9592 -106.1903 263° West 390 449 43,000  Level Albuquerque Center
Mon 07:00:38 PM 31.9606 -106.3436 271° West 397 457 43,000  Level Albuquerque Center
Mon 07:01:40 PM 31.9744 -106.4725 277° West 396 456 43,000  Level Albuquerque Center
Mon 07:02:41 PM 31.9900 -106.5997 278° West 394 453 43,000  Level Albuquerque Center
Mon 07:03:42 PM 32.0050 -106.7267 278° West 392 451 43,000  Level Albuquerque Center
Mon 07:04:44 PM 32.0194 -106.8517 278° West 385 443 43,000  Level Albuquerque Center
Mon 07:05:45 PM 32.0333 -106.9747 278° West 381 438 43,000  Level Albuquerque Center
Mon 07:06:47 PM 32.0461 -107.0961 277° West 375 432 43,000  Level Albuquerque Center
Mon 07:07:48 PM 32.0592 -107.2144 277° West 366 421 43,000  Level Albuquerque Center
Mon 07:08:50 PM 32.0719 -107.3339 277° West 365 420 43,000  Level Albuquerque Center
Mon 07:09:51 PM 32.0844 -107.4544 277° West 367 422 43,000  Level Albuquerque Center
Mon 07:10:52 PM 32.0975 -107.5767 277° West 372 428 43,000  Level Albuquerque Center
Mon 07:11:54 PM 32.1139 -107.7292 277° West 385 443 43,000  Level Albuquerque Center
Mon 07:12:55 PM 32.1281 -107.8567 278° West 391 450 43,000  Level Albuquerque Center
Mon 07:13:57 PM 32.1400 -107.9858 276° West 393 452 43,000  Level Albuquerque Center
Mon 07:14:58 PM 32.1539 -108.1139 277° West 395 455 43,000  Level Albuquerque Center
Mon 07:16:00 PM 32.1767 -108.2433 282° West 400 460 43,000  Level Albuquerque Center
Mon 07:17:01 PM 32.2019 -108.3667 284° West 391 450 43,000  Level Albuquerque Center
Mon 07:18:03 PM 32.2258 -108.4958 282° West 387 445 43,000  Level Albuquerque Center
Mon 07:19:04 PM 32.2506 -108.6189 283° West 388 447 43,000  Level Albuquerque Center
Mon 07:20:05 PM 32.2739 -108.7428 283° West 388 447 43,000  Level Albuquerque Center
Mon 07:21:07 PM 32.2969 -108.8683 282° West 391 450 43,000  Level Albuquerque Center
Mon 07:22:08 PM 32.3264 -109.0231 283° West 400 460 43,000  Level Albuquerque Center
Mon 07:23:10 PM 32.3500 -109.1539 282° West 406 467 43,000  Level Albuquerque Center
Mon 07:24:11 PM 32.3742 -109.2819 283° West 403 464 43,000  Level Albuquerque Center
Mon 07:25:12 PM 32.3978 -109.4094 282° West 399 459 43,000  Level Albuquerque Center
Mon 07:26:14 PM 32.4208 -109.5364 282° West 401 461 43,000  Level Albuquerque Center
Mon 07:27:15 PM 32.4442 -109.6678 282° West 403 464 43,000  Level Albuquerque Center
Mon 07:28:17 PM 32.4719 -109.7994 284° West 408 470 43,000  Level Albuquerque Center
Mon 07:29:18 PM 32.4964 -109.9294 283° West 408 470 43,000  Level Albuquerque Center
Mon 07:30:19 PM 32.5233 -110.0842 282° West 404 465 43,000  Level Albuquerque Center
Mon 07:31:21 PM 32.5458 -110.2117 282° West 399 459 43,000  Level Albuquerque Center
Mon 07:32:22 PM 32.5694 -110.3472 282° West 407 468 43,000  Level Albuquerque Center
Mon 07:33:24 PM 32.5936 -110.4786 282° West 409 471 43,000  Level Albuquerque Center
Mon 07:34:25 PM 32.6172 -110.6106 282° West 409 471 43,000  Level Albuquerque Center
Mon 07:35:26 PM 32.6394 -110.7433 281° West 410 472 43,000  Level Albuquerque Center
Mon 07:36:28 PM 32.6628 -110.8747 282° West 408 470 43,000  Level Albuquerque Center
Mon 07:37:29 PM 32.6850 -111.0022 282° West 400 460 43,000  Level Albuquerque Center
Mon 07:38:31 PM 32.7061 -111.1297 281° West 395 455 43,000  Level Albuquerque Center
Mon 07:39:32 PM 32.7269 -111.2561 281° West 393 452 43,000  Level Albuquerque Center
Mon 07:40:33 PM 32.7531 -111.4042 282° West 382 440 43,000  Level Albuquerque Center
Mon 07:41:35 PM 32.7742 -111.5275 282° West 382 440 43,000  Level Albuquerque Center
Mon 07:42:36 PM 32.7944 -111.6522 281° West 384 442 43,000  Level Albuquerque Center
Mon 07:43:38 PM 32.8139 -111.7753 281° West 380 437 43,000  Level Albuquerque Center
Mon 07:44:39 PM 32.8344 -111.9008 281° West 384 442 43,000  Level Albuquerque Center
Mon 07:45:41 PM 32.8553 -112.0269 281° West 387 445 43,000  Level Albuquerque Center
Mon 07:46:42 PM 32.8747 -112.1478 281° West 378 435 43,000  Level Albuquerque Center
Mon 07:47:44 PM 32.8953 -112.2844 280° West 374 430 43,000  Level Albuquerque Center
Mon 07:48:45 PM 32.9147 -112.4089 281° West 382 440 43,000  Level Albuquerque Center
Mon 07:49:47 PM 32.9347 -112.5344 281° West 388 447 43,000  Level Albuquerque Center
Mon 07:50:48 PM 32.9544 -112.6581 281° West 385 443 43,000  Level Albuquerque Center
Mon 07:51:50 PM 32.9417 -112.7831 263° West 385 443 43,000 -390 Level Albuquerque Center
Mon 07:52:51 PM 32.9256 -112.9069 261° West 383 441 42,200 -976 Descending Albuquerque Center
Mon 07:53:53 PM 32.9039 -113.0633 261° West 398 458 41,000 -1,171 Descending Albuquerque Center
Mon 07:54:54 PM 32.8858 -113.1978 261° West 409 471 39,800 -1,317 Descending Albuquerque Center
Mon 07:55:56 PM 32.8683 -113.3297 261° West 410 472 38,300 -1,452 Descending Albuquerque Center
Mon 07:56:58 PM 32.8492 -113.4594 260° West 403 464 36,800 -1,463 Descending Albuquerque Center
Mon 07:57:59 PM 32.8303 -113.5936 261° West 411 473 35,300 -1,317 Descending Albuquerque Center
Mon 07:59:01 PM 32.8119 -113.7200 260° West 396 456 34,100 -634 Descending Albuquerque Center
Mon 08:00:02 PM 32.7914 -113.8653 260° West 376 433 34,000 -49 Descending Albuquerque Center
Mon 08:01:04 PM 32.7750 -113.9925 261° West 386 444 34,000 -49 Level Albuquerque Center
Mon 08:02:05 PM 32.7742 -114.1175 270° West 381 438 33,900 -361 Descending Albuquerque Center
Mon 08:02:27 PM 32.7733 -114.1686 269° West 377 434 33,500 -1,000 Descending Los Angeles Center
Mon 08:03:29 PM 32.7722 -114.2922 269° West 376 433 32,500 -976 Descending Los Angeles Center
Mon 08:04:30 PM 32.7711 -114.4150 269° West 372 428 31,500 -976 Descending Los Angeles Center
Mon 08:05:32 PM 32.7700 -114.5342 269° West 363 418 30,500 -968 Descending Los Angeles Center
Mon 08:06:34 PM 32.7669 -114.6525 268° West 361 415 29,500 -968 Descending Los Angeles Center
Mon 08:07:36 PM 32.7656 -114.7744 269° West 370 426 28,500 -1,065 Descending Los Angeles Center
Mon 08:08:38 PM 32.7606 -114.9228 268° West 375 432 27,300 -1,103 Descending Los Angeles Center
Mon 08:10:00 PM 32.7500 -115.0893 270° West  Level FlightAware Approximate
Mon 08:10:41 PM 32.7578 -115.1733 270° West 382 440 25,100  Level Los Angeles Center
Mon 08:11:43 PM 32.7528 -115.2972 267° West 377 434 23,700 -1,403 Descending Los Angeles Center
Mon 08:12:45 PM 32.7500 -115.4169 268° West 367 422 22,200 -1,452 Descending Los Angeles Center
Mon 08:13:47 PM 32.7469 -115.5328 268° West 353 406 20,700 -1,403 Descending Los Angeles Center
Mon 08:14:49 PM 32.7508 -115.6439 272° West 340 391 19,300 -1,659 Descending Los Angeles Center
Mon 08:15:50 PM 32.7550 -115.7706 272° West 323 372 17,300 -1,659 Descending Los Angeles Center
Mon 08:16:52 PM 32.7569 -115.8711 271° West 307 353 15,900 -1,355 Descending Los Angeles Center
Mon 08:17:54 PM 32.7600 -115.9683 272° West 298 343 14,500 -1,306 Descending Los Angeles Center
Mon 08:18:56 PM 32.7619 -116.0625 271° West 287 330 13,200 -1,113 Descending Los Angeles Center
Mon 08:19:58 PM 32.7644 -116.1589 272° West 289 333 12,200 -919 Descending Los Angeles Center
Mon 08:21:00 PM 32.7664 -116.2514 271° West 284 327 11,300 -878 Descending Los Angeles Center
Mon 08:22:01 PM 32.7675 -116.3372 271° West 265 305 10,400 -732 Descending Los Angeles Center
Mon 08:23:03 PM 32.7681 -116.4247 270° West 262 302 9,800 -242 Descending Los Angeles Center
Mon 08:24:05 PM 32.7706 -116.4956 272° West 218 251 9,900 -532 Climbing Los Angeles Center
Mon 08:25:07 PM 32.7719 -116.5756 271° West 202 232 8,700 -1,306 Descending Los Angeles Center
Mon 08:26:09 PM 32.7728 -116.6406 271° West 198 228 7,200 -1,415 Descending Los Angeles Center
Mon 08:27:10 PM 32.7761 -116.7033 274° West 194 223 5,800 -1,268 Descending Los Angeles Center
Mon 08:28:12 PM 32.7881 -116.7536 286° West 172 198 4,600 -581 Descending Los Angeles Center
Mon 08:29:14 PM 32.7964 -116.7989 282° West 154 177 4,600 -290 Level Los Angeles Center
Mon 08:30:16 PM 32.8044 -116.8422 282° West 143 165 4,000 -953 Descending Los Angeles Center
Mon 08:31:01 PM 32.8167 -116.8833 289° West 134 154 2,900 -1,314 Descending Southern California TRACON
Mon 08:32:01 PM 32.8167 -116.9167 270° West 137 158 1,700 -950 Descending Southern California TRACON
Mon 08:33:01 PM 32.8333 -116.9667 292° West 135 155 1,000 -700 Descending Southern California TRACON

Login

Don't have an account? Register now (free) for customized features, flight alerts, and more!